Time;durP1;ratioP1;P1;durP2;ratioP2;P2;SDS_P1;SDS_P2;PMS_P1;PMS_P2;Temp;Humidity;BMP_temperature;BMP_pressure;BME280_temperature;BME280_humidity;BME280_pressure;Samples;Min_cycle;Max_cycle;Signal;HPM_P1;HPM_P2
2021/01/20 00:00:31;;;;;;;;;;;;;;;-11.91;45.49;100760.77;1819053;79;20140;-71
2021/01/20 00:03:00;;;;;;;;;;;;;;;-11.92;45.29;100753.91;1818596;79;20117;-70
2021/01/20 00:05:28;;;;;;;;;;;;;;;-11.95;45.22;100750.62;1818968;79;21992;-70
2021/01/20 00:07:56;;;;;;;;;;;;;;;-11.98;45.19;100751.61;1814832;79;20200;-70
2021/01/20 00:10:24;;;;;;;;;;;;;;;-11.99;45.19;100749.45;1818728;79;20200;-71
2021/01/20 00:12:52;;;;;;;;;;;;;;;-12.03;45.20;100746.61;1819113;79;20514;-69
2021/01/20 00:15:21;;;;;;;;;;;;;;;-12.06;45.25;100748.03;1819252;79;20224;-69
2021/01/20 00:17:49;;;;;;;;;;;;;;;-12.07;45.29;100745.52;1819010;78;22172;-67
2021/01/20 00:20:18;;;;;;;;;;;;;;;-12.06;45.26;100745.91;1818891;79;20137;-68
2021/01/20 00:22:48;;;;;;;;;;;;;;;-12.06;45.17;100750.62;1818848;79;20144;-68
2021/01/20 00:25:17;;;;;;;;;;;;;;;-12.05;45.14;100747.60;1819085;79;20164;-68
2021/01/20 00:27:45;;;;;;;;;;;;;;;-12.06;45.11;100738.98;1815862;79;20243;-67
2021/01/20 00:30:14;;;;;;;;;;;;;;;-12.06;45.06;100740.73;1818230;79;22129;-68
2021/01/20 00:32:41;;;;;;;;;;;;;;;-12.07;44.95;100736.03;1818326;77;20188;-68
2021/01/20 00:35:11;;;;;;;;;;;;;;;-12.10;44.94;100736.16;1819091;79;20248;-69
2021/01/20 00:37:39;;;;;;;;;;;;;;;-12.11;44.98;100740.11;1818973;79;20168;-65
2021/01/20 00:40:07;;;;;;;;;;;;;;;-12.13;45.02;100738.02;1815625;79;20678;-66
2021/01/20 00:42:36;;;;;;;;;;;;;;;-12.17;45.07;100738.14;1813482;77;21209;-69
2021/01/20 00:45:05;;;;;;;;;;;;;;;-12.20;45.06;100738.27;1798336;79;20231;-69
2021/01/20 00:47:33;;;;;;;;;;;;;;;-12.23;45.05;100731.08;1811572;79;20232;-69
2021/01/20 00:50:01;;;;;;;;;;;;;;;-12.23;45.05;100735.82;1807925;79;20503;-69
2021/01/20 00:52:29;;;;;;;;;;;;;;;-12.21;44.95;100743.05;1808245;79;20506;-68
2021/01/20 00:54:57;;;;;;;;;;;;;;;-12.20;44.97;100742.16;1807821;79;21193;-70
2021/01/20 00:57:27;;;;;;;;;;;;;;;-12.17;44.92;100741.20;1807538;79;20153;-69
2021/01/20 00:59:55;;;;;;;;;;;;;;;-12.19;44.80;100741.69;1806960;79;20463;-71
2021/01/20 01:02:23;;;;;;;;;;;;;;;-12.19;44.67;100752.03;1807391;79;20168;-63
2021/01/20 01:04:51;;;;;;;;;;;;;;;-12.17;44.63;100748.95;1781655;79;20133;-62
2021/01/20 01:07:19;;;;;;;;;;;;;;;-12.15;44.63;100748.42;1806516;79;21212;-64
2021/01/20 01:09:47;;;;;;;;;;;;;;;-12.16;44.54;100746.30;1799292;79;20247;-64
2021/01/20 01:12:32;;;;;;;;;;;;;;;-12.15;44.51;100744.55;1802117;79;20220;-65
2021/01/20 01:15:00;;;;;;;;;;;;;;;-12.17;44.48;100745.91;1806852;79;20306;-65
2021/01/20 01:17:30;;;;;;;;;;;;;;;-12.21;44.37;100739.17;1806909;79;20763;-65
2021/01/20 01:19:59;;;;;;;;;;;;;;;-12.22;44.42;100738.80;1807333;79;21258;-69
2021/01/20 01:22:27;;;;;;;;;;;;;;;-12.22;44.36;100743.97;1807383;79;20145;-70
2021/01/20 01:24:55;;;;;;;;;;;;;;;-12.22;44.33;100741.39;1807053;79;20133;-70
2021/01/20 01:27:23;;;;;;;;;;;;;;;-12.24;44.31;100748.81;1779982;79;20209;-69
2021/01/20 01:29:53;;;;;;;;;;;;;;;-12.26;44.35;100745.42;1807298;79;20317;-69
2021/01/20 01:32:23;;;;;;;;;;;;;;;-12.27;44.29;100747.64;1806765;79;21383;-68
2021/01/20 01:34:52;;;;;;;;;;;;;;;-12.31;44.23;100748.20;1805187;79;20212;-69
2021/01/20 01:37:20;;;;;;;;;;;;;;;-12.31;44.24;100739.63;1805419;79;20224;-70
2021/01/20 01:40:06;;;;;;;;;;;;;;;-12.31;44.18;100740.91;1806247;79;20244;-69
2021/01/20 01:42:35;;;;;;;;;;;;;;;-12.30;44.11;100745.19;1787089;79;20229;-70
2021/01/20 01:45:05;;;;;;;;;;;;;;;-12.29;44.21;100753.31;1807090;79;21012;-69
2021/01/20 01:47:33;;;;;;;;;;;;;;;-12.30;44.24;100754.23;1806751;79;20213;-71
2021/01/20 01:50:04;;;;;;;;;;;;;;;-12.30;44.26;100758.94;1806653;79;20609;-70
2021/01/20 01:52:34;;;;;;;;;;;;;;;-12.30;44.29;100767.98;1807037;79;20137;-69
2021/01/20 01:55:22;;;;;;;;;;;;;;;-12.30;44.27;100765.87;1802195;79;20213;-68
2021/01/20 01:57:57;;;;;;;;;;;;;;;-12.28;44.08;100771.80;1805697;79;21210;-70
2021/01/20 02:00:25;;;;;;;;;;;;;;;-12.28;44.11;100774.39;1802186;79;20607;-70
2021/01/20 02:03:01;;;;;;;;;;;;;;;-12.31;44.04;100768.05;1807000;79;20470;-70
2021/01/20 02:05:30;;;;;;;;;;;;;;;-12.31;44.04;100768.88;1803318;79;20310;-66
2021/01/20 02:07:58;;;;;;;;;;;;;;;-12.30;44.09;100776.20;1807541;79;20220;-65
2021/01/20 02:10:28;;;;;;;;;;;;;;;-12.34;44.11;100775.47;1806464;79;21423;-67
2021/01/20 02:13:18;;;;;;;;;;;;;;;-12.36;44.17;100774.24;1807037;79;20249;-66
2021/01/20 02:16:07;;;;;;;;;;;;;;;-12.38;44.07;100771.31;1771691;79;20502;-69
2021/01/20 02:18:35;;;;;;;;;;;;;;;-12.44;44.11;100774.98;1806285;79;20149;-69
2021/01/20 02:21:24;;;;;;;;;;;;;;;-12.46;44.05;100781.14;1779359;79;20265;-68
2021/01/20 02:23:57;;;;;;;;;;;;;;;-12.48;43.98;100772.59;1795809;79;21218;-67
2021/01/20 02:26:55;;;;;;;;;;;;;;;-12.45;44.15;100779.78;1832169;77;20206;-70
2021/01/20 02:29:47;;;;;;;;;;;;;;;-12.51;44.26;100777.45;1787084;79;20178;-68
2021/01/20 02:32:16;;;;;;;;;;;;;;;-12.48;44.20;100777.75;1739686;80;20665;-69
2021/01/20 02:34:45;;;;;;;;;;;;;;;-12.47;44.12;100781.56;1795636;79;20590;-68
2021/01/20 02:37:13;;;;;;;;;;;;;;;-12.47;44.15;100781.56;1785107;80;20143;-69
2021/01/20 02:39:43;;;;;;;;;;;;;;;-12.47;44.25;100780.28;1677268;84;20144;-68
2021/01/20 02:42:33;;;;;;;;;;;;;;;-12.39;44.27;100787.75;1825576;77;20247;-67
2021/01/20 02:45:03;;;;;;;;;;;;;;;-12.40;44.34;100799.81;1770785;79;20157;-68
2021/01/20 02:47:38;;;;;;;;;;;;;;;-12.38;44.34;100797.16;1802283;79;21290;-68
2021/01/20 02:50:10;;;;;;;;;;;;;;;-12.41;44.13;100807.20;1803828;78;20182;-70
2021/01/20 02:52:58;;;;;;;;;;;;;;;-12.50;44.21;100799.78;1798814;79;20143;-67
2021/01/20 02:55:42;;;;;;;;;;;;;;;-12.53;44.30;100807.66;1804039;79;20139;-69
2021/01/20 02:58:29;;;;;;;;;;;;;;;-12.58;44.38;100804.42;1800525;79;20477;-68
2021/01/20 03:00:59;;;;;;;;;;;;;;;-12.59;44.42;100801.44;1791927;78;20562;-71
2021/01/20 03:03:27;;;;;;;;;;;;;;;-12.60;44.37;100801.90;1766819;79;20184;-70
2021/01/20 03:05:55;;;;;;;;;;;;;;;-12.61;44.41;100795.50;1799508;79;20286;-67
2021/01/20 03:08:23;;;;;;;;;;;;;;;-12.62;44.53;100795.93;1802048;79;20147;-70
2021/01/20 03:10:51;;;;;;;;;;;;;;;-12.62;44.63;100788.18;1792711;79;20208;-69
2021/01/20 03:13:19;;;;;;;;;;;;;;;-12.57;44.80;100781.54;1790075;79;21207;-68
2021/01/20 03:15:46;;;;;;;;;;;;;;;-12.55;44.80;100780.59;1788647;79;20236;-69
2021/01/20 03:18:14;;;;;;;;;;;;;;;-12.54;44.74;100777.57;1792814;79;20256;-68
2021/01/20 03:20:41;;;;;;;;;;;;;;;-12.59;44.87;100781.59;1788231;79;20192;-69
2021/01/20 03:23:09;;;;;;;;;;;;;;;-12.62;44.94;100775.72;1787657;79;20272;-70
2021/01/20 03:25:36;;;;;;;;;;;;;;;-12.66;45.04;100775.45;1786502;79;21388;-68
2021/01/20 03:28:04;;;;;;;;;;;;;;;-12.68;45.11;100784.55;1787598;79;20134;-68
2021/01/20 03:30:32;;;;;;;;;;;;;;;-12.75;45.32;100786.55;1790670;79;20112;-69
2021/01/20 03:33:00;;;;;;;;;;;;;;;-12.80;45.48;100788.45;1788035;79;20231;-68
2021/01/20 03:35:28;;;;;;;;;;;;;;;-12.80;45.54;100787.16;1786046;79;20367;-69
2021/01/20 03:37:55;;;;;;;;;;;;;;;-12.76;45.49;100788.73;1787582;79;21363;-68
2021/01/20 03:40:23;;;;;;;;;;;;;;;-12.71;45.39;100788.55;1787750;79;20219;-68
2021/01/20 03:42:50;;;;;;;;;;;;;;;-12.64;45.26;100794.33;1756225;81;20230;-69
2021/01/20 03:45:18;;;;;;;;;;;;;;;-12.63;45.10;100796.85;1749080;80;20142;-66
2021/01/20 03:47:46;;;;;;;;;;;;;;;-12.59;45.10;100801.44;1749104;81;20154;-71
2021/01/20 03:50:16;;;;;;;;;;;;;;;-12.58;45.07;100809.13;1748129;81;21457;-69
2021/01/20 03:52:43;;;;;;;;;;;;;;;-12.54;44.90;100804.23;1751975;81;20197;-68
2021/01/20 03:55:12;;;;;;;;;;;;;;;-12.55;44.68;100801.72;1752142;81;20250;-68
2021/01/20 03:57:40;;;;;;;;;;;;;;;-12.56;44.71;100808.61;1752142;81;20166;-67
2021/01/20 04:00:08;;;;;;;;;;;;;;;-12.56;44.61;100798.73;1749684;81;20323;-68
2021/01/20 04:02:36;;;;;;;;;;;;;;;-12.55;44.76;100805.12;1752818;81;21272;-67
2021/01/20 04:05:07;;;;;;;;;;;;;;;-12.54;44.71;100803.41;1750192;81;20677;-65
2021/01/20 04:07:35;;;;;;;;;;;;;;;-12.52;44.83;100795.97;1711110;81;20221;-67
2021/01/20 04:10:07;;;;;;;;;;;;;;;-12.53;44.69;100796.03;1751491;81;20138;-68
2021/01/20 04:12:37;;;;;;;;;;;;;;;-12.58;44.65;100792.80;1750994;81;20187;-65
2021/01/20 04:15:06;;;;;;;;;;;;;;;-12.62;45.03;100791.23;1752155;81;21211;-64
2021/01/20 04:17:34;;;;;;;;;;;;;;;-12.67;45.46;100794.42;1750162;81;20271;-65
2021/01/20 04:20:04;;;;;;;;;;;;;;;-12.68;45.70;100802.63;1750939;81;20156;-65
2021/01/20 04:22:32;;;;;;;;;;;;;;;-12.64;45.67;100802.08;1753563;81;20167;-66
2021/01/20 04:25:00;;;;;;;;;;;;;;;-12.60;45.53;100804.91;1751087;81;20321;-68
2021/01/20 04:27:30;;;;;;;;;;;;;;;-12.57;45.48;100799.20;1752367;81;21216;-65
2021/01/20 04:29:58;;;;;;;;;;;;;;;-12.52;45.31;100804.18;1752061;81;20155;-68
2021/01/20 04:32:26;;;;;;;;;;;;;;;-12.48;45.03;100807.04;1669373;85;20234;-68
2021/01/20 04:34:54;;;;;;;;;;;;;;;-12.45;44.83;100812.52;1662945;85;20248;-67
2021/01/20 04:37:22;;;;;;;;;;;;;;;-12.41;44.68;100808.91;1664862;85;20256;-67
2021/01/20 04:39:50;;;;;;;;;;;;;;;-12.41;44.49;100810.21;1664007;85;22069;-67
2021/01/20 04:42:18;;;;;;;;;;;;;;;-12.42;44.43;100815.84;1684247;84;20248;-71
2021/01/20 04:44:47;;;;;;;;;;;;;;;-12.41;44.30;100820.11;1692856;84;20595;-69
2021/01/20 04:47:15;;;;;;;;;;;;;;;-12.39;44.10;100826.52;1691713;84;20538;-68
2021/01/20 04:49:46;;;;;;;;;;;;;;;-12.42;44.03;100821.01;1706900;79;20233;-69
2021/01/20 04:52:15;;;;;;;;;;;;;;;-12.45;43.92;100821.56;1781525;79;21197;-70
2021/01/20 04:54:44;;;;;;;;;;;;;;;-12.51;44.01;100823.95;1780466;79;20132;-68
2021/01/20 04:57:15;;;;;;;;;;;;;;;-12.58;43.97;100823.80;1783640;79;20309;-68
2021/01/20 04:59:43;;;;;;;;;;;;;;;-12.65;43.95;100821.89;1788131;79;20118;-69
2021/01/20 05:02:11;;;;;;;;;;;;;;;-12.70;44.06;100820.77;1781927;79;20313;-68
2021/01/20 05:04:40;;;;;;;;;;;;;;;-12.71;44.04;100824.25;1781368;79;21199;-68
2021/01/20 05:07:09;;;;;;;;;;;;;;;-12.71;43.90;100818.25;1751219;79;20221;-68
2021/01/20 05:09:36;;;;;;;;;;;;;;;-12.73;43.86;100819.59;1781752;79;20224;-69
2021/01/20 05:12:05;;;;;;;;;;;;;;;-12.74;43.86;100819.20;1781218;79;20218;-67
2021/01/20 05:14:36;;;;;;;;;;;;;;;-12.78;43.90;100832.29;1781888;79;20177;-69
2021/01/20 05:17:08;;;;;;;;;;;;;;;-12.78;44.03;100833.58;1781461;79;21410;-70
2021/01/20 05:19:38;;;;;;;;;;;;;;;-12.77;44.00;100833.98;1783197;79;20165;-70
2021/01/20 05:22:08;;;;;;;;;;;;;;;-12.73;43.95;100836.85;1785978;79;20487;-67
2021/01/20 05:24:36;;;;;;;;;;;;;;;-12.72;43.78;100830.77;1767046;79;20290;-69
2021/01/20 05:27:04;;;;;;;;;;;;;;;-12.70;43.70;100844.02;1779670;79;20216;-71
2021/01/20 05:29:35;;;;;;;;;;;;;;;-12.73;43.68;100844.59;1783736;79;21327;-69
2021/01/20 05:32:18;;;;;;;;;;;;;;;-12.75;43.61;100851.55;1781871;79;20237;-67
2021/01/20 05:35:05;;;;;;;;;;;;;;;-12.74;43.61;100850.66;1784248;79;20565;-68
2021/01/20 05:37:44;;;;;;;;;;;;;;;-12.72;43.48;100856.16;1783112;79;20315;-67
2021/01/20 05:40:14;;;;;;;;;;;;;;;-12.72;43.44;100850.13;1783777;79;20148;-68
2021/01/20 05:42:50;;;;;;;;;;;;;;;-12.75;43.41;100850.25;1778514;79;22181;-68
2021/01/20 05:45:19;;;;;;;;;;;;;;;-12.79;43.39;100859.88;1777276;80;20501;-69
2021/01/20 05:48:04;;;;;;;;;;;;;;;-12.81;43.32;100853.07;1776198;80;20174;-69
2021/01/20 05:50:34;;;;;;;;;;;;;;;-12.82;43.29;100854.83;1772613;80;20475;-68
2021/01/20 05:53:08;;;;;;;;;;;;;;;-12.86;43.17;100850.20;1775925;80;20214;-67
2021/01/20 05:55:36;;;;;;;;;;;;;;;-12.95;43.12;100846.67;1779209;80;21087;-69
2021/01/20 05:58:05;;;;;;;;;;;;;;;-13.09;43.30;100841.99;1775938;80;20245;-69
2021/01/20 06:00:33;;;;;;;;;;;;;;;-13.19;43.71;100844.51;1778963;80;20148;-69
2021/01/20 06:03:01;;;;;;;;;;;;;;;-13.26;43.92;100848.23;1775359;80;20281;-69
2021/01/20 06:05:29;;;;;;;;;;;;;;;-13.25;44.02;100852.47;1774197;80;20223;-70
2021/01/20 06:07:57;;;;;;;;;;;;;;;-13.18;44.38;100862.98;1776017;80;21261;-68
2021/01/20 06:10:25;;;;;;;;;;;;;;;-13.06;44.32;100864.28;1776817;80;20250;-69
2021/01/20 06:12:53;;;;;;;;;;;;;;;-12.97;44.13;100865.23;1777020;80;20140;-71
2021/01/20 06:15:23;;;;;;;;;;;;;;;-12.90;44.13;100867.98;1777263;80;20514;-68
2021/01/20 06:17:51;;;;;;;;;;;;;;;-12.85;44.13;100873.02;1775897;80;20201;-69
2021/01/20 06:20:23;;;;;;;;;;;;;;;-12.80;44.01;100869.80;1773815;80;21198;-66
2021/01/20 06:22:51;;;;;;;;;;;;;;;-12.77;44.06;100872.27;1776298;80;20181;-67
2021/01/20 06:25:26;;;;;;;;;;;;;;;-12.72;44.03;100875.97;1772673;80;20152;-68
2021/01/20 06:28:07;;;;;;;;;;;;;;;-12.67;43.96;100868.91;1772532;80;20248;-70
2021/01/20 06:30:37;;;;;;;;;;;;;;;-12.38;43.97;100881.16;1772646;80;20246;-72
2021/01/20 06:33:10;;;;;;;;;;;;;;;-11.69;43.53;100874.97;1776919;80;21639;-70
2021/01/20 06:35:41;;;;;;;;;;;;;;;-11.01;42.51;100875.55;1776123;80;20181;-70
2021/01/20 06:38:31;;;;;;;;;;;;;;;-10.57;41.91;100874.02;1776351;80;20299;-70
2021/01/20 06:41:01;;;;;;;;;;;;;;;-10.27;41.18;100871.34;1777252;80;20486;-69
2021/01/20 06:43:38;;;;;;;;;;;;;;;-10.07;40.84;100873.84;1778662;79;20283;-70
2021/01/20 06:46:20;;;;;;;;;;;;;;;-9.97;40.30;100878.11;1783942;79;21175;-69
2021/01/20 06:48:58;;;;;;;;;;;;;;;-10.01;40.27;100885.67;1779362;79;20221;-69
2021/01/20 06:51:26;;;;;;;;;;;;;;;-10.06;40.57;100890.23;1783983;79;20168;-71
2021/01/20 06:54:15;;;;;;;;;;;;;;;-10.04;40.63;100890.55;1780454;79;20287;-71
2021/01/20 06:56:41;;;;;;;;;;;;;;;-10.02;40.54;100893.06;1778836;79;20271;-71
2021/01/20 06:59:19;;;;;;;;;;;;;;;-10.04;40.66;100890.55;1783590;79;21205;-71
2021/01/20 07:02:05;;;;;;;;;;;;;;;-10.01;40.79;100896.05;1781598;79;20139;-71
2021/01/20 07:04:46;;;;;;;;;;;;;;;-9.99;40.88;100899.41;1779354;79;20490;-70
2021/01/20 07:07:14;;;;;;;;;;;;;;;-9.98;40.90;100904.98;1784527;79;21225;-70
2021/01/20 07:09:55;;;;;;;;;;;;;;;-9.97;41.28;100905.81;1740354;79;20241;-70
2021/01/20 07:12:24;;;;;;;;;;;;;;;-9.90;41.15;100908.04;1784822;79;21264;-68
2021/01/20 07:14:52;;;;;;;;;;;;;;;-9.83;41.09;100911.20;1782033;79;20597;-67
2021/01/20 07:17:20;;;;;;;;;;;;;;;-9.75;40.95;100912.11;1782284;79;20234;-67
2021/01/20 07:19:51;;;;;;;;;;;;;;;-9.68;41.00;100912.20;1779449;79;20179;-69
2021/01/20 07:22:19;;;;;;;;;;;;;;;-9.58;40.80;100913.44;1778720;79;20239;-70
2021/01/20 07:24:46;;;;;;;;;;;;;;;-9.44;40.70;100915.81;1781889;79;21273;-71
2021/01/20 07:27:15;;;;;;;;;;;;;;;-9.36;40.57;100914.98;1782181;79;20282;-70
2021/01/20 07:29:45;;;;;;;;;;;;;;;-9.24;40.36;100920.02;1779624;79;20116;-69
2021/01/20 07:32:12;;;;;;;;;;;;;;;-9.22;40.59;100916.41;1786575;78;20217;-67
2021/01/20 07:34:42;;;;;;;;;;;;;;;-9.08;40.47;100917.46;1781267;78;20489;-66
2021/01/20 07:37:13;;;;;;;;;;;;;;;-8.88;40.36;100921.64;1782621;79;21198;-67
2021/01/20 07:39:41;;;;;;;;;;;;;;;-8.81;39.27;100919.94;1779579;79;20505;-67
2021/01/20 07:42:09;;;;;;;;;;;;;;;-9.08;39.13;100923.95;1786343;79;20157;-68
2021/01/20 07:44:48;;;;;;;;;;;;;;;-9.37;39.74;100924.98;1782995;79;20220;-67
2021/01/20 07:47:16;;;;;;;;;;;;;;;-9.53;40.01;100925.72;1783876;79;20293;-67
2021/01/20 07:49:53;;;;;;;;;;;;;;;-9.63;40.40;100925.78;1781987;79;21200;-69
2021/01/20 07:52:21;;;;;;;;;;;;;;;-9.55;40.89;100927.56;1695039;84;20547;-67
2021/01/20 07:54:49;;;;;;;;;;;;;;;-9.39;40.79;100934.15;1694053;83;20253;-66
2021/01/20 07:57:19;;;;;;;;;;;;;;;-9.26;40.80;100921.84;1694664;84;20251;-69
2021/01/20 08:00:03;;;;;;;;;;;;;;;-9.06;40.96;100933.36;1693455;84;20496;-66
2021/01/20 08:02:49;;;;;;;;;;;;;;;-8.73;40.94;100929.10;1832199;77;20227;-66
2021/01/20 08:05:18;;;;;;;;;;;;;;;-8.52;41.27;100934.95;1817772;79;20192;-65
2021/01/20 08:07:46;;;;;;;;;;;;;;;-8.15;41.24;100935.08;1796439;79;21206;-70
2021/01/20 08:10:18;;;;;;;;;;;;;;;-7.80;41.05;100941.41;1812364;79;20217;-66
2021/01/20 08:12:47;;;;;;;;;;;;;;;-7.47;40.81;100944.80;1800827;79;20507;-64
2021/01/20 08:15:15;;;;;;;;;;;;;;;-7.14;40.48;100945.92;1804959;79;20224;-68
2021/01/20 08:17:44;;;;;;;;;;;;;;;-6.85;39.71;100945.96;1805698;79;20177;-65
2021/01/20 08:20:12;;;;;;;;;;;;;;;-6.67;39.07;100949.70;1805630;79;21192;-66
2021/01/20 08:22:45;;;;;;;;;;;;;;;-6.55;38.89;100956.33;1805372;79;20176;-67
2021/01/20 08:25:21;;;;;;;;;;;;;;;-6.41;38.52;100952.04;1796564;79;20177;-66
2021/01/20 08:27:49;;;;;;;;;;;;;;;-6.28;37.80;100955.56;1766148;79;20149;-66
2021/01/20 08:30:30;;;;;;;;;;;;;;;-6.23;37.40;100950.89;1799418;79;20283;-66
2021/01/20 08:32:58;;;;;;;;;;;;;;;-6.21;37.68;100956.87;1797611;79;22132;-67
2021/01/20 08:35:33;;;;;;;;;;;;;;;-6.17;37.35;100957.05;1761555;79;20144;-67
2021/01/20 08:38:02;;;;;;;;;;;;;;;-6.16;37.37;100962.63;1797051;79;20226;-66
2021/01/20 08:40:29;;;;;;;;;;;;;;;-6.12;37.50;100963.29;1795205;79;20475;-67
2021/01/20 08:42:57;;;;;;;;;;;;;;;-6.04;37.27;100969.33;1795942;79;20220;-67
2021/01/20 08:45:32;;;;;;;;;;;;;;;-6.03;37.20;100960.58;1797634;79;21371;-67
2021/01/20 08:48:03;;;;;;;;;;;;;;;-6.09;36.69;100966.19;1803303;79;20209;-65
2021/01/20 08:50:34;;;;;;;;;;;;;;;-6.19;37.41;100964.60;1727673;81;20307;-67
2021/01/20 08:53:21;;;;;;;;;;;;;;;-6.20;37.75;100961.61;1727532;82;20253;-66
2021/01/20 08:55:53;;;;;;;;;;;;;;;-6.27;36.92;100963.78;1727515;82;20253;-69
2021/01/20 08:58:26;;;;;;;;;;;;;;;-6.64;37.30;100954.73;1727131;82;21221;-67
2021/01/20 09:01:02;;;;;;;;;;;;;;;-6.89;38.11;100947.92;1727127;82;20235;-67
2021/01/20 09:03:33;;;;;;;;;;;;;;;-6.97;38.45;100954.52;1714529;82;20547;-67
2021/01/20 09:06:13;;;;;;;;;;;;;;;-7.06;38.72;100954.59;1827378;77;20224;-66
2021/01/20 09:08:41;;;;;;;;;;;;;;;-7.10;39.18;100957.00;1797697;79;20147;-67
2021/01/20 09:11:08;;;;;;;;;;;;;;;-7.02;39.24;100953.49;1795849;79;22089;-66
2021/01/20 09:13:36;;;;;;;;;;;;;;;-6.81;39.42;100947.94;1788651;79;20177;-65
2021/01/20 09:16:04;;;;;;;;;;;;;;;-6.58;39.21;100953.91;1787179;79;20167;-67
2021/01/20 09:18:32;;;;;;;;;;;;;;;-6.39;38.61;100948.41;1792813;79;20157;-68
2021/01/20 09:21:00;;;;;;;;;;;;;;;-6.29;38.74;100943.92;1789137;79;20188;-66
2021/01/20 09:23:29;;;;;;;;;;;;;;;-6.24;38.29;100942.70;1793181;79;21049;-66
2021/01/20 09:25:57;;;;;;;;;;;;;;;-6.18;38.75;100944.10;1794567;79;20193;-67
2021/01/20 09:28:25;;;;;;;;;;;;;;;-6.08;38.57;100942.59;1759054;79;20132;-67
2021/01/20 09:30:53;;;;;;;;;;;;;;;-5.96;38.11;100946.17;1787852;79;20244;-67
2021/01/20 09:33:21;;;;;;;;;;;;;;;-5.89;38.18;100944.84;1792955;79;20210;-66
2021/01/20 09:35:49;;;;;;;;;;;;;;;-5.80;38.18;100934.25;1769566;79;21269;-65
2021/01/20 09:38:18;;;;;;;;;;;;;;;-5.68;37.93;100938.70;1760311;80;20147;-68
2021/01/20 09:40:45;;;;;;;;;;;;;;;-5.60;37.77;100939.51;1788896;79;20263;-68
2021/01/20 09:43:13;;;;;;;;;;;;;;;-5.52;37.32;100935.08;1770525;79;20243;-67
2021/01/20 09:45:41;;;;;;;;;;;;;;;-5.54;37.48;100935.66;1787421;79;20243;-68
2021/01/20 09:48:09;;;;;;;;;;;;;;;-5.57;37.55;100931.95;1789334;79;21214;-68
2021/01/20 09:50:38;;;;;;;;;;;;;;;-5.64;37.48;100928.43;1788717;79;20238;-67
2021/01/20 09:53:07;;;;;;;;;;;;;;;-5.65;37.82;100927.23;1787152;79;20297;-69
2021/01/20 09:55:35;;;;;;;;;;;;;;;-5.57;37.60;100924.11;1784548;79;20156;-68
2021/01/20 09:58:03;;;;;;;;;;;;;;;-5.51;37.68;100926.31;1785375;79;20164;-70
2021/01/20 10:00:34;;;;;;;;;;;;;;;-5.44;37.46;100920.23;1772516;79;21144;-69
2021/01/20 10:03:06;;;;;;;;;;;;;;;-5.42;37.39;100925.70;1787487;79;20638;-69
2021/01/20 10:05:32;;;;;;;;;;;;;;;-5.38;37.24;100926.36;1783552;79;20436;-70
2021/01/20 10:08:01;;;;;;;;;;;;;;;-5.35;37.17;100928.77;1756856;80;20326;-69
2021/01/20 10:10:28;;;;;;;;;;;;;;;-5.42;36.98;100918.34;1780297;80;20220;-69
2021/01/20 10:12:56;;;;;;;;;;;;;;;-5.58;36.99;100917.20;1769299;80;21398;-69
2021/01/20 10:15:24;;;;;;;;;;;;;;;-5.98;36.93;100916.72;1779238;80;20223;-68
2021/01/20 10:17:53;;;;;;;;;;;;;;;-6.50;37.71;100914.78;1757143;80;20214;-69
2021/01/20 10:20:23;;;;;;;;;;;;;;;-6.91;38.33;100913.73;1779908;80;20146;-68
2021/01/20 10:22:51;;;;;;;;;;;;;;;-7.26;39.09;100915.35;1776608;80;20334;-70
2021/01/20 10:25:19;;;;;;;;;;;;;;;-7.49;39.52;100908.42;1779203;80;21203;-69
2021/01/20 10:27:46;;;;;;;;;;;;;;;-7.60;39.95;100897.77;1768614;80;20137;-68
2021/01/20 10:30:15;;;;;;;;;;;;;;;-7.72;40.09;100900.61;1779024;80;20734;-68
2021/01/20 10:32:43;;;;;;;;;;;;;;;-7.78;40.37;100904.39;1779767;80;20205;-69
2021/01/20 10:35:12;;;;;;;;;;;;;;;-7.69;40.92;100904.81;1777630;80;20242;-68
2021/01/20 10:37:40;;;;;;;;;;;;;;;-7.43;41.13;100903.32;1777935;80;21153;-68
2021/01/20 10:40:09;;;;;;;;;;;;;;;-7.12;40.26;100894.53;1778690;80;20224;-68
2021/01/20 10:42:37;;;;;;;;;;;;;;;-6.92;39.56;100893.36;1777510;80;20126;-68
2021/01/20 10:45:05;;;;;;;;;;;;;;;-6.92;39.46;100895.97;1778514;80;20502;-68
2021/01/20 10:47:34;;;;;;;;;;;;;;;-6.96;39.63;100897.52;1780793;80;20316;-69
2021/01/20 10:50:04;;;;;;;;;;;;;;;-6.91;39.98;100896.79;1775295;79;21219;-67
2021/01/20 10:52:32;;;;;;;;;;;;;;;-6.72;40.33;100891.30;1777015;80;20134;-66
2021/01/20 10:55:00;;;;;;;;;;;;;;;-6.51;39.43;100886.52;1772328;80;20128;-66
2021/01/20 10:57:28;;;;;;;;;;;;;;;-6.47;38.83;100889.32;1778171;80;20220;-66
2021/01/20 10:59:57;;;;;;;;;;;;;;;-6.40;39.22;100889.31;1774759;80;20223;-68
2021/01/20 11:02:25;;;;;;;;;;;;;;;-6.20;39.01;100887.22;1778482;80;22188;-69
2021/01/20 11:04:53;;;;;;;;;;;;;;;-6.10;38.17;100881.78;1780427;79;20451;-65
2021/01/20 11:07:20;;;;;;;;;;;;;;;-6.12;38.58;100878.44;1782436;79;20557;-65
2021/01/20 11:09:51;;;;;;;;;;;;;;;-6.04;38.42;100877.95;1783299;79;20506;-65
2021/01/20 11:12:18;;;;;;;;;;;;;;;-5.96;38.62;100881.33;1779898;79;20330;-64
2021/01/20 11:14:48;;;;;;;;;;;;;;;-5.84;38.42;100875.34;1783483;79;20218;-64
2021/01/20 11:17:17;;;;;;;;;;;;;;;-5.75;37.68;100885.66;1784816;79;20686;-62
2021/01/20 11:19:45;;;;;;;;;;;;;;;-5.86;37.74;100883.27;1784088;79;20158;-64
2021/01/20 11:22:13;;;;;;;;;;;;;;;-5.86;38.01;100886.33;1779572;79;20215;-63
2021/01/20 11:24:41;;;;;;;;;;;;;;;-5.79;37.94;100892.84;1783601;79;20534;-64
2021/01/20 11:27:10;;;;;;;;;;;;;;;-5.71;37.51;100885.35;1783723;79;21373;-65
2021/01/20 11:29:38;;;;;;;;;;;;;;;-5.81;37.28;100880.36;1781054;79;20140;-66
2021/01/20 11:32:06;;;;;;;;;;;;;;;-5.90;38.02;100888.31;1780933;79;20569;-66
2021/01/20 11:34:35;;;;;;;;;;;;;;;-5.81;38.00;100883.80;1631139;87;20469;-65
2021/01/20 11:37:03;;;;;;;;;;;;;;;-5.69;37.79;100878.23;1639156;87;20517;-64
2021/01/20 11:39:30;;;;;;;;;;;;;;;-5.57;37.60;100881.82;1634048;87;21234;-64
2021/01/20 11:41:58;;;;;;;;;;;;;;;-5.49;37.09;100875.62;1633534;87;20247;-66
2021/01/20 11:44:26;;;;;;;;;;;;;;;-5.53;36.60;100874.16;1631900;87;20275;-65
2021/01/20 11:46:54;;;;;;;;;;;;;;;-5.67;37.53;100872.47;1633065;87;20339;-65
2021/01/20 11:49:22;;;;;;;;;;;;;;;-5.65;37.29;100875.80;1616886;87;20521;-63
2021/01/20 11:51:50;;;;;;;;;;;;;;;-5.64;37.49;100885.77;1654502;79;21173;-65
2021/01/20 11:54:18;;;;;;;;;;;;;;;-5.64;37.56;100883.16;1784265;79;20494;-65
2021/01/20 11:56:45;;;;;;;;;;;;;;;-5.59;37.54;100886.77;1783651;79;20136;-64
2021/01/20 11:59:14;;;;;;;;;;;;;;;-5.51;37.46;100880.58;1775472;79;20221;-64
2021/01/20 12:01:42;;;;;;;;;;;;;;;-5.48;37.27;100881.23;1782368;78;20587;-63
2021/01/20 12:04:10;;;;;;;;;;;;;;;-5.41;37.17;100879.03;1783454;79;21149;-64
2021/01/20 12:06:38;;;;;;;;;;;;;;;-5.35;37.24;100882.54;1763208;79;20255;-65
2021/01/20 12:09:06;;;;;;;;;;;;;;;-5.31;37.02;100884.50;1781372;79;20120;-64
2021/01/20 12:11:34;;;;;;;;;;;;;;;-5.35;36.90;100887.77;1787305;79;20136;-64
2021/01/20 12:14:02;;;;;;;;;;;;;;;-5.40;36.84;100892.93;1782780;79;20139;-64
2021/01/20 12:16:30;;;;;;;;;;;;;;;-5.51;36.87;100890.55;1784050;79;22615;-64
2021/01/20 12:18:58;;;;;;;;;;;;;;;-5.59;36.81;100887.63;1781012;79;20231;-64
2021/01/20 12:21:25;;;;;;;;;;;;;;;-5.68;36.91;100891.68;1783585;79;20213;-66
2021/01/20 12:23:53;;;;;;;;;;;;;;;-5.77;37.06;100888.37;1784468;79;20494;-64
2021/01/20 12:26:21;;;;;;;;;;;;;;;-5.92;37.44;100894.09;1784452;79;20738;-63
2021/01/20 12:28:49;;;;;;;;;;;;;;;-5.90;37.68;100892.23;1764379;79;21222;-65
2021/01/20 12:31:17;;;;;;;;;;;;;;;-5.87;37.22;100888.59;1781955;79;20132;-65
2021/01/20 12:33:45;;;;;;;;;;;;;;;-5.93;37.36;100890.27;1782595;79;20134;-65
2021/01/20 12:36:13;;;;;;;;;;;;;;;-5.95;37.59;100881.70;1667768;85;20308;-65
2021/01/20 12:38:41;;;;;;;;;;;;;;;-6.02;37.12;100887.36;1673748;85;20297;-68
2021/01/20 12:41:09;;;;;;;;;;;;;;;-6.15;37.50;100879.95;1674467;85;21224;-66
2021/01/20 12:43:37;;;;;;;;;;;;;;;-6.19;37.92;100884.98;1678640;84;20254;-66
2021/01/20 12:46:05;;;;;;;;;;;;;;;-6.11;37.94;100883.19;1674082;85;20207;-65